Flight Track Log - Related Links

Times and Time Zones

All times are in EST time to prevent confusion due to time zone crossing. See the AAY875 flight status page for this flight to view local times or setup timezone preferences in your user account.

Time Position Orientation Groundspeed Altitude Reporting Facility
EST Latitude Longitude Course Direction KTS MPH feet Rate Location/Type
Thu 05:38:49 PM 44.8186 -68.9539 240° Southwest 269 310 3,200  Level Boston Center
Thu 05:39:49 PM 44.7883 -69.0561 247° West 279 321 5,600 2,479 Climbing Boston Center
Thu 05:40:50 PM 44.7481 -69.1553 240° Southwest 286 329 8,200 2,508 Climbing Boston Center
Thu 05:41:51 PM 44.7075 -69.2547 240° Southwest 288 331 10,700 1,567 Climbing Boston Center
Thu 05:43:00 PM 44.5514 -69.5951 240° Southwest  Level FlightAware Approximate
Thu 05:43:04 PM 44.6525 -69.3836 239° Southwest 315 362 11,700  Level Boston Center
Thu 05:44:00 PM 44.4992 -69.7229 240° Southwest  Level FlightAware Approximate
Thu 05:44:04 PM 44.6014 -69.5078 240° Southwest 351 404 12,600  Level Boston Center
Thu 05:45:05 PM 44.5456 -69.6422 240° Southwest 386 444 14,500 1,869 Climbing Boston Center
Thu 05:46:06 PM 44.4903 -69.7719 239° Southwest 387 445 16,400 1,636 Climbing Boston Center
Thu 05:47:06 PM 44.4306 -69.8983 237° Southwest 401 461 17,800 1,339 Climbing Boston Center
Thu 05:48:07 PM 44.3569 -70.0044 226° Southwest 372 428 19,100 1,033 Climbing Boston Center
Thu 05:49:08 PM 44.2753 -70.1044 221° Southwest 384 442 19,900 793 Climbing Boston Center
Thu 05:50:08 PM 44.1900 -70.2111 222° Southwest 406 467 20,700 942 Climbing Boston Center
Thu 05:51:09 PM 44.1039 -70.3172 222° Southwest 411 473 21,800 1,426 Climbing Boston Center
Thu 05:52:10 PM 44.0172 -70.4222 221° Southwest 411 473 23,600 2,213 Climbing Boston Center
Thu 05:53:11 PM 43.9428 -70.5178 223° Southwest 362 417 26,300 1,636 Climbing Boston Center
Thu 05:54:11 PM 43.8694 -70.6072 221° Southwest 350 403 26,900 446 Climbing Boston Center
Thu 05:55:12 PM 43.7944 -70.6992 222° Southwest 357 411 27,200 492 Climbing Boston Center
Thu 05:56:13 PM 43.7194 -70.7942 222° Southwest 362 417 27,900 639 Climbing Boston Center
Thu 05:57:14 PM 43.6664 -70.8628 223° Southwest 362 417 28,500 590 Climbing Boston Center
Thu 05:58:15 PM 43.5714 -70.9653 218° Southwest 363 418 29,100 496 Climbing Boston Center
Thu 05:59:15 PM 43.4967 -71.0578 222° Southwest 362 417 29,500 446 Climbing Boston Center
Thu 06:00:16 PM 43.4197 -71.1483 221° Southwest 365 420 30,000 246 Climbing Boston Center
Thu 06:01:17 PM 43.3453 -71.2378 221° Southwest 359 413 30,000  Level Boston Center
Thu 06:02:18 PM 43.2547 -71.3467 221° Southwest 361 415 30,000  Level Boston Center
Thu 06:03:18 PM 43.1792 -71.4356 221° Southwest 358 412 30,000  Level Boston Center
Thu 06:04:19 PM 43.1128 -71.5114 220° Southwest 362 417 30,000 -49 Level Boston Center
Thu 06:05:20 PM 43.0278 -71.6139 221° Southwest 359 413 29,900  Descending Boston Center
Thu 06:06:21 PM 42.9517 -71.7011 220° Southwest 357 411 30,000 49 Climbing Boston Center
Thu 06:07:22 PM 42.8769 -71.7908 221° Southwest 357 411 30,000  Level Boston Center
Thu 06:08:22 PM 42.8011 -71.8794 221° Southwest 358 412 30,000  Level Boston Center
Thu 06:09:23 PM 42.7256 -71.9658 220° Southwest 357 411 30,000  Level Boston Center
Thu 06:10:24 PM 42.6486 -72.0533 220° Southwest 359 413 30,000  Level Boston Center
Thu 06:11:25 PM 42.5756 -72.1383 221° Southwest 350 403 30,000  Level Boston Center
Thu 06:12:25 PM 42.5022 -72.2222 220° Southwest 345 397 30,000  Level Boston Center
Thu 06:13:26 PM 42.4183 -72.3172 220° Southwest 348 400 30,000  Level Boston Center
Thu 06:14:27 PM 42.3450 -72.4017 220° Southwest 347 399 30,000  Level Boston Center
Thu 06:15:28 PM 42.2789 -72.4781 221° Southwest 350 403 30,000  Level Boston Center
Thu 06:16:29 PM 42.2056 -72.5614 220° Southwest 346 398 30,000  Level Boston Center
Thu 06:17:30 PM 42.1339 -72.6411 220° Southwest 338 389 30,000  Level Boston Center
Thu 06:18:30 PM 42.0633 -72.7203 220° Southwest 331 381 30,000  Level Boston Center
Thu 06:19:31 PM 41.9922 -72.7992 220° Southwest 330 380 30,000  Level Boston Center
Thu 06:20:32 PM 41.9208 -72.8797 220° Southwest 333 383 30,000  Level Boston Center
Thu 06:21:33 PM 41.8494 -72.9589 220° Southwest 334 384 30,000  Level Boston Center
Thu 06:22:33 PM 41.7778 -73.0406 220° Southwest 336 387 30,000  Level Boston Center
Thu 06:23:34 PM 41.6903 -73.1372 220° Southwest 339 390 30,000  Level Boston Center
Thu 06:24:35 PM 41.6167 -73.2172 219° Southwest 339 390 30,000  Level Boston Center
Thu 06:25:36 PM 41.5586 -73.2825 220° Southwest 342 394 30,000  Level Boston Center
Thu 06:26:37 PM 41.4658 -73.3828 219° Southwest 345 397 30,000  Level Boston Center
Thu 06:27:37 PM 41.3917 -73.4644 220° Southwest 347 399 30,000  Level Boston Center
Thu 06:28:38 PM 41.3183 -73.5456 220° Southwest 347 399 30,000  Level Boston Center
Thu 06:29:39 PM 41.2514 -73.6369 226° Southwest 354 407 30,000  Level Boston Center
Thu 06:30:40 PM 41.1903 -73.7397 232° Southwest 356 410 30,000  Level Boston Center
Thu 06:31:41 PM 41.1275 -73.8433 231° Southwest 360 414 30,000  Level Boston Center
Thu 06:32:41 PM 41.0667 -73.9469 232° Southwest 359 413 30,000  Level Boston Center
Thu 06:33:42 PM 41.0036 -74.0492 231° Southwest 360 414 30,000  Level Boston Center
Thu 06:34:43 PM 40.9436 -74.1531 233° Southwest 358 412 30,000 -42 Level Boston Center
Thu 06:36:06 PM 40.8506 -74.2989 230° Southwest 366 421 29,900 -41 Descending New York Center
Thu 06:37:08 PM 40.7892 -74.4028 232° Southwest 366 421 29,900  Level New York Center
Thu 06:38:07 PM 40.7253 -74.5089 232° Southwest 366 421 29,900  Level New York Center
Thu 06:39:06 PM 40.6636 -74.6147 232° Southwest 366 421 29,900  Level New York Center
Thu 06:40:06 PM 40.5978 -74.7178 230° Southwest 366 421 29,900  Level New York Center
Thu 06:41:06 PM 40.5297 -74.8175 228° Southwest 366 421 29,900  Level New York Center
Thu 06:42:06 PM 40.4617 -74.9144 227° Southwest 366 421 29,900  Level New York Center
Thu 06:43:06 PM 40.3917 -75.0139 227° Southwest 366 421 29,900 50 Level New York Center
Thu 06:44:06 PM 40.3233 -75.1103 227° Southwest 371 427 30,000 50 Climbing New York Center
Thu 06:45:06 PM 40.2550 -75.2094 228° Southwest 371 427 30,000 -50 Level New York Center
Thu 06:46:06 PM 40.1847 -75.3081 227° Southwest 376 433 29,900  Descending New York Center
Thu 06:47:06 PM 40.1142 -75.4067 227° Southwest 376 433 30,000  Climbing New York Center
Thu 06:48:06 PM 40.0347 -75.5181 227° Southwest 376 433 29,900  Descending New York Center
Thu 06:49:06 PM 39.9594 -75.6214 226° Southwest 376 433 30,000  Climbing New York Center
Thu 06:50:06 PM 39.8886 -75.7244 228° Southwest 381 438 29,900  Descending New York Center
Thu 06:51:06 PM 39.8169 -75.8411 231° Southwest 393 452 30,000 200 Climbing New York Center
Thu 06:52:06 PM 39.7453 -75.9547 231° Southwest 414 476 30,300 450 Climbing New York Center
Thu 06:53:06 PM 39.7239 -76.1072 260° West 414 476 30,900 350 Climbing New York Center
Thu 06:54:06 PM 39.7317 -76.2536 274° West 427 491 31,000 49 Climbing New York Center
Thu 06:55:08 PM 39.7192 -76.4278 265° West 441 507 31,000  Level Washington Center
Thu 06:56:08 PM 39.6561 -76.5106 225° Southwest 403 464 31,000  Level Washington Center
Thu 06:57:09 PM 39.5489 -76.6008 213° Southwest 397 457 31,000 353 Level Washington Center
Thu 06:58:07 PM 39.4525 -76.6828 213° Southwest 409 471 31,700 504 Climbing Washington Center
Thu 06:59:08 PM 39.3578 -76.7672 215° Southwest 416 479 32,000 148 Climbing Washington Center
Thu 07:00:09 PM 39.2653 -76.8433 213° Southwest 416 479 32,000  Level Washington Center
Thu 07:01:08 PM 39.1686 -76.9303 215° Southwest 416 479 32,000  Level Washington Center
Thu 07:02:10 PM 39.0739 -77.0139 214° Southwest 421 484 32,000  Level Washington Center
Thu 07:03:07 PM 38.9831 -77.1058 218° Southwest 421 484 32,000  Level Washington Center
Thu 07:04:08 PM 38.8942 -77.2025 220° Southwest 421 484 32,000  Level Washington Center
Thu 07:05:08 PM 38.8053 -77.3019 221° Southwest 427 491 32,000  Level Washington Center
Thu 07:06:07 PM 38.7186 -77.3956 220° Southwest 427 491 32,000  Level Washington Center
Thu 07:07:08 PM 38.6294 -77.4944 221° Southwest 427 491 32,000  Level Washington Center
Thu 07:08:08 PM 38.5403 -77.5903 220° Southwest 427 491 32,000  Level Washington Center
Thu 07:09:08 PM 38.4511 -77.6861 220° Southwest 427 491 32,000  Level Washington Center
Thu 07:10:09 PM 38.3533 -77.7919 220° Southwest 422 486 32,000  Level Washington Center
Thu 07:11:09 PM 38.2617 -77.8897 220° Southwest 422 486 32,000  Level Washington Center
Thu 07:12:07 PM 38.1744 -77.9847 221° Southwest 422 486 32,000  Level Washington Center
Thu 07:13:09 PM 38.0828 -78.0819 220° Southwest 428 493 32,000  Level Washington Center
Thu 07:14:08 PM 37.9933 -78.1739 219° Southwest 428 493 32,000  Level Washington Center
Thu 07:15:07 PM 37.9100 -78.2553 218° Southwest 428 493 32,000  Level Washington Center
Thu 07:16:07 PM 37.8056 -78.3542 217° Southwest 428 493 32,000  Level Washington Center
Thu 07:17:08 PM 37.7097 -78.4453 217° Southwest 428 493 32,000  Level Washington Center
Thu 07:18:09 PM 37.6158 -78.5361 217° Southwest 433 498 32,000  Level Washington Center
Thu 07:19:09 PM 37.5197 -78.6239 216° Southwest 433 498 32,000  Level Washington Center
Thu 07:20:07 PM 37.4278 -78.7119 217° Southwest 433 498 32,000  Level Washington Center
Thu 07:21:07 PM 37.3422 -78.7894 216° Southwest 428 493 32,000  Level Washington Center
Thu 07:22:09 PM 37.2500 -78.8794 218° Southwest 428 493 32,000  Level Washington Center
Thu 07:23:07 PM 37.1539 -78.9639 215° Southwest 428 493 32,000  Level Washington Center
Thu 07:24:09 PM 37.0639 -79.0511 218° Southwest 428 493 32,000  Level Washington Center
Thu 07:25:07 PM 36.9694 -79.1378 216° Southwest 428 493 32,000  Level Washington Center
Thu 07:26:47 PM 36.8028 -79.2894 216° Southwest 422 486 32,000  Level Atlanta Center
Thu 07:27:47 PM 36.7058 -79.3756 215° Southwest 422 486 32,000  Level Atlanta Center
Thu 07:28:47 PM 36.6211 -79.4528 216° Southwest 422 486 32,000  Level Atlanta Center
Thu 07:29:47 PM 36.5283 -79.5383 217° Southwest 422 486 32,000  Level Atlanta Center
Thu 07:30:47 PM 36.4356 -79.6233 216° Southwest 422 486 32,000  Level Atlanta Center
Thu 07:31:47 PM 36.3428 -79.7083 216° Southwest 422 486 32,000  Level Atlanta Center
Thu 07:32:47 PM 36.2497 -79.7933 216° Southwest 422 486 32,000  Level Atlanta Center
Thu 07:33:47 PM 36.1486 -79.8833 216° Southwest 417 480 32,000  Level Atlanta Center
Thu 07:34:47 PM 36.0553 -79.9653 215° Southwest 422 486 32,000  Level Atlanta Center
Thu 07:35:47 PM 35.9447 -80.0247 204° Southwest 422 486 32,000  Level Atlanta Center
Thu 07:36:47 PM 35.8358 -80.0814 203° Southwest 427 491 32,000  Level Atlanta Center
Thu 07:37:47 PM 35.7250 -80.1353 202° Southwest 427 491 32,000  Level Atlanta Center
Thu 07:38:47 PM 35.6164 -80.1942 204° Southwest 432 497 32,000  Level Atlanta Center
Thu 07:39:47 PM 35.5033 -80.2503 202° Southwest 432 497 32,000  Level Atlanta Center
Thu 07:40:47 PM 35.3944 -80.3064 203° Southwest 432 497 32,000  Level Atlanta Center
Thu 07:41:47 PM 35.2833 -80.3597 201° Southwest 432 497 32,000  Level Atlanta Center
Thu 07:42:47 PM 35.1744 -80.4128 202° Southwest 432 497 32,000  Level Atlanta Center
Thu 07:44:23 PM 34.9944 -80.5031 202° Southwest 429 494 32,000  Level Jacksonville Center
Thu 07:45:23 PM 34.8850 -80.5567 202° Southwest 429 494 32,000  Level Jacksonville Center
Thu 07:46:23 PM 34.7919 -80.6022 202° Southwest 429 494 32,000  Level Jacksonville Center
Thu 07:47:23 PM 34.6825 -80.6556 202° Southwest 424 488 32,000  Level Jacksonville Center
Thu 07:48:23 PM 34.5583 -80.7219 204° Southwest 439 505 32,000  Level Jacksonville Center
Thu 07:49:23 PM 34.4489 -80.7775 203° Southwest 430 495 32,000  Level Jacksonville Center
Thu 07:50:23 PM 34.3450 -80.8178 198° South 423 487 32,000  Level Jacksonville Center
Thu 07:51:23 PM 34.2519 -80.8678 204° Southwest 418 481 32,000  Level Jacksonville Center
Thu 07:52:23 PM 34.1464 -80.9178 201° Southwest 407 468 32,000  Level Jacksonville Center
Thu 07:53:23 PM 34.0389 -80.9706 202° Southwest 412 474 32,000  Level Jacksonville Center
Thu 07:54:23 PM 33.9289 -81.0203 201° Southwest 417 480 32,000  Level Jacksonville Center
Thu 07:55:23 PM 33.8233 -81.0725 202° Southwest 417 480 32,000 -50 Level Jacksonville Center
Thu 07:56:23 PM 33.7175 -81.1272 203° Southwest 412 474 31,900  Descending Jacksonville Center
Thu 07:57:23 PM 33.6097 -81.1792 202° Southwest 412 474 32,000 50 Climbing Jacksonville Center
Thu 07:58:23 PM 33.5019 -81.2311 202° Southwest 412 474 32,000  Level Jacksonville Center
Thu 07:59:23 PM 33.3942 -81.2856 203° Southwest 412 474 32,000 -50 Level Jacksonville Center
Thu 08:00:23 PM 33.2864 -81.3369 202° Southwest 412 474 31,900  Descending Jacksonville Center
Thu 08:01:23 PM 33.1806 -81.3886 202° Southwest 412 474 32,000 50 Climbing Jacksonville Center
Thu 08:02:23 PM 33.0725 -81.4400 202° Southwest 412 474 32,000  Level Jacksonville Center
Thu 08:03:23 PM 32.9647 -81.4936 203° Southwest 417 480 32,000  Level Jacksonville Center
Thu 08:04:23 PM 32.8544 -81.5425 200° South 417 480 32,000  Level Jacksonville Center
Thu 08:05:23 PM 32.7400 -81.5736 193° South 417 480 32,000  Level Jacksonville Center
Thu 08:06:23 PM 32.6131 -81.6053 192° South 422 486 32,000  Level Jacksonville Center
Thu 08:07:23 PM 32.5089 -81.6339 193° South 427 491 32,000  Level Jacksonville Center
Thu 08:08:23 PM 32.3819 -81.6650 192° South 427 491 32,000  Level Jacksonville Center
Thu 08:09:23 PM 32.2653 -81.6986 194° South 427 491 32,000  Level Jacksonville Center
Thu 08:10:23 PM 32.1633 -81.7219 191° South 432 497 32,000  Level Jacksonville Center
Thu 08:11:23 PM 32.0361 -81.7553 193° South 432 497 32,000  Level Jacksonville Center
Thu 08:12:23 PM 31.9342 -81.7836 193° South 425 489 32,000  Level Jacksonville Center
Thu 08:13:23 PM 31.8092 -81.8119 191° South 417 480 32,000  Level Jacksonville Center
Thu 08:14:23 PM 31.6967 -81.8425 193° South 412 474 32,000  Level Jacksonville Center
Thu 08:15:23 PM 31.5944 -81.8681 192° South 417 480 32,000  Level Jacksonville Center
Thu 08:16:23 PM 31.4675 -81.9011 193° South 423 487 32,000  Level Jacksonville Center
Thu 08:17:23 PM 31.3486 -81.9292 191° South 431 496 32,000 -50 Level Jacksonville Center
Thu 08:18:23 PM 31.2339 -81.9597 193° South 431 496 31,900  Descending Jacksonville Center
Thu 08:19:23 PM 31.1194 -81.9897 193° South 424 488 32,000 50 Climbing Jacksonville Center
Thu 08:20:23 PM 31.0047 -82.0175 192° South 429 494 32,000  Level Jacksonville Center
Thu 08:21:23 PM 30.8900 -82.0478 193° South 429 494 32,000 -50 Level Jacksonville Center
Thu 08:22:23 PM 30.7756 -82.0753 192° South 429 494 31,900  Descending Jacksonville Center
Thu 08:23:23 PM 30.6628 -82.1028 192° South 429 494 32,000  Climbing Jacksonville Center
Thu 08:24:23 PM 30.5461 -82.1303 191° South 429 494 31,900 -400 Descending Jacksonville Center
Thu 08:25:23 PM 30.4439 -82.1528 191° South 429 494 31,200 -1,000 Descending Jacksonville Center
Thu 08:26:23 PM 30.3292 -82.1803 192° South 429 494 29,900 -600 Descending Jacksonville Center
Thu 08:27:23 PM 30.2144 -82.2075 192° South 429 494 30,000 50 Climbing Jacksonville Center
Thu 08:28:23 PM 30.0978 -82.2347 191° South 429 494 30,000 -50 Level Jacksonville Center
Thu 08:29:23 PM 29.9831 -82.2667 194° South 429 494 29,900 -50 Descending Jacksonville Center
Thu 08:30:23 PM 29.8664 -82.2961 192° South 429 494 29,900 -550 Level Jacksonville Center
Thu 08:31:23 PM 29.7494 -82.3183 189° South 429 494 28,800 -1,350 Descending Jacksonville Center
Thu 08:32:23 PM 29.6244 -82.3478 192° South 429 494 27,200 -900 Descending Jacksonville Center
Thu 08:33:23 PM 29.4992 -82.3508 181° South 434 499 27,000 -1,050 Descending Jacksonville Center
Thu 08:34:23 PM 29.3717 -82.3325 173° South 447 514 25,100 -2,150 Descending Jacksonville Center
Thu 08:35:23 PM 29.2486 -82.3189 174° South 452 520 22,700 -2,400 Descending Jacksonville Center
Thu 08:36:23 PM 29.1294 -82.3031 173° South 441 507 20,300 -2,400 Descending Jacksonville Center
Thu 08:37:23 PM 29.0147 -82.2894 174° South 430 495 17,900 -2,400 Descending Jacksonville Center
Thu 08:38:23 PM 28.9144 -82.2783 174° South 419 482 15,500 -1,556 Descending Jacksonville Center
Thu 08:40:32 PM 28.6667 -82.2500 174° South 365 420 13,000 -1,108 Descending Tampa TRACON
Thu 08:41:38 PM 28.5833 -82.3000 208° Southwest 311 358 11,900 -1,000 Descending Tampa TRACON
Thu 08:42:32 PM 28.5500 -82.3667 240° Southwest 265 305 11,000 -1,263 Descending Tampa TRACON
Thu 08:43:32 PM 28.5000 -82.4333 230° Southwest 257 296 9,500 -1,650 Descending Tampa TRACON
Thu 08:44:32 PM 28.4500 -82.5000 230° Southwest 265 305 7,700 -1,600 Descending Tampa TRACON
Thu 08:45:32 PM 28.4167 -82.5667 240° Southwest 267 307 6,300 -895 Descending Tampa TRACON
Thu 08:46:26 PM 28.3667 -82.6167 221° Southwest 275 316 6,000 -150 Descending Tampa TRACON
Thu 08:47:32 PM 28.3000 -82.6833 221° Southwest 272 313 6,000 -286 Level Tampa TRACON
Thu 08:48:32 PM 28.2333 -82.7167 204° Southwest 282 325 5,400 -800 Descending Tampa TRACON
Thu 08:49:32 PM 28.1500 -82.7333 190° South 279 321 4,400 -750 Descending Tampa TRACON
Thu 08:50:32 PM 28.0833 -82.7667 204° Southwest 265 305 3,900 -700 Descending Tampa TRACON
Thu 08:51:32 PM 28.0167 -82.7667 180° South 215 247 3,000 -645 Descending Tampa TRACON
Thu 08:52:33 PM 27.9667 -82.7667 180° South 203 234 2,600 -446 Descending Tampa TRACON
Thu 08:53:33 PM 27.9000 -82.7667 180° South 202 232 2,100 -450 Descending Tampa TRACON
Thu 08:54:33 PM 27.8500 -82.7500 164° South 184 212 1,700 -333 Descending Tampa TRACON
Thu 08:55:39 PM 27.8333 -82.7000 111° Southeast 174 200 1,400 -400 Descending Tampa TRACON
Thu 08:56:33 PM 27.8500 -82.6833 41° Northeast 143 165 900 -632 Descending Tampa TRACON
Thu 08:57:33 PM 27.8833 -82.6833 360° North 129 148 200 -700 Descending Tampa TRACON
Thu 08:59:00 PM 27.9000 -82.6833 310° West  Level FlightAware Approximate
Thu 09:06:00 PM 27.9100 -82.6875 310° West  Level Estimated

Login

Don't have an account? Register now (free) for customized features, flight alerts, and more!